Time;durP1;ratioP1;P1;durP2;ratioP2;P2;SDS_P1;SDS_P2;PMS_P1;PMS_P2;Temp;Humidity;BMP_temperature;BMP_pressure;BME280_temperature;BME280_humidity;BME280_pressure;Samples;Min_cycle;Max_cycle;Signal;HPM_P1;HPM_P2
2022/10/22 00:01:40;;;;;;;9.63;5.63;;;;;;;15.20;100.00;99612.34;5025990;28;20090;-86
2022/10/22 00:04:07;;;;;;;9.82;5.38;;;;;;;15.20;100.00;99601.63;5028894;28;20056;-86
2022/10/22 00:06:34;;;;;;;16.60;6.18;;;;;;;15.23;100.00;99605.81;5025511;28;20041;-86
2022/10/22 00:09:00;;;;;;;11.82;6.70;;;;;;;15.23;100.00;99597.78;5037029;28;20086;-86
2022/10/22 00:11:27;;;;;;;12.85;6.55;;;;;;;15.23;100.00;99609.31;5032093;28;20095;-85
2022/10/22 00:13:54;;;;;;;14.48;6.18;;;;;;;15.22;100.00;99636.25;5045357;28;20110;-86
2022/10/22 00:16:21;;;;;;;10.50;6.13;;;;;;;15.16;100.00;99635.94;5029282;28;20049;-86
2022/10/22 00:18:48;;;;;;;10.38;5.28;;;;;;;15.19;100.00;99611.50;5020534;28;20048;-86
2022/10/22 00:21:14;;;;;;;11.75;5.15;;;;;;;15.21;100.00;99600.63;5030685;28;20556;-86
2022/10/22 00:23:42;;;;;;;11.43;5.85;;;;;;;15.22;100.00;99599.63;5032630;28;20094;-86
2022/10/22 00:26:09;;;;;;;13.32;5.65;;;;;;;15.22;100.00;99604.16;5010948;28;20101;-86
2022/10/22 00:28:36;;;;;;;11.43;6.00;;;;;;;15.23;100.00;99611.16;5034509;28;20044;-86
2022/10/22 00:31:03;;;;;;;12.77;5.72;;;;;;;15.21;100.00;99605.97;5028555;28;22277;-86
2022/10/22 00:33:30;;;;;;;9.18;5.50;;;;;;;15.24;100.00;99605.66;5024634;28;20458;-85
2022/10/22 00:35:57;;;;;;;11.05;5.93;;;;;;;15.23;100.00;99600.47;5042483;28;20049;-86
2022/10/22 00:38:24;;;;;;;11.77;5.97;;;;;;;15.20;100.00;99601.63;5031845;28;20090;-86
2022/10/22 00:40:50;;;;;;;15.25;5.53;;;;;;;15.19;100.00;99599.97;5060181;28;20045;-85
2022/10/22 00:43:18;;;;;;;11.38;5.22;;;;;;;15.18;100.00;99600.97;5026845;28;20123;-86
2022/10/22 00:45:46;;;;;;;10.52;5.70;;;;;;;15.16;100.00;99605.66;5048214;28;20055;-85
2022/10/22 00:48:19;;;;;;;17.75;5.35;;;;;;;15.13;100.00;99616.69;5021160;28;20150;-85
2022/10/22 00:50:50;;;;;;;11.30;5.20;;;;;;;15.13;100.00;99625.53;5012295;28;20056;-86
2022/10/22 00:53:34;;;;;;;15.25;5.07;;;;;;;15.09;100.00;99637.59;5026369;28;20136;-86
2022/10/22 00:56:01;;;;;;;9.07;4.63;;;;;;;15.13;100.00;99638.09;5045782;28;20040;-85
2022/10/22 00:58:30;;;;;;;11.40;4.82;;;;;;;15.14;100.00;99645.13;5030751;28;20470;-86
2022/10/22 01:00:57;;;;;;;8.02;4.50;;;;;;;15.13;100.00;99659.47;5049816;28;20059;-86
2022/10/22 01:03:24;;;;;;;10.80;5.20;;;;;;;15.11;100.00;99662.34;5030119;28;20071;-86
2022/10/22 01:05:56;;;;;;;13.93;5.97;;;;;;;15.09;100.00;99675.03;5014318;28;20041;-86
2022/10/22 01:08:35;;;;;;;11.00;5.20;;;;;;;15.07;100.00;99669.03;5054390;28;20538;-86
2022/10/22 01:11:21;;;;;;;13.70;4.97;;;;;;;15.01;100.00;99659.00;5018122;28;20412;-86
2022/10/22 01:13:54;;;;;;;10.98;5.50;;;;;;;15.08;100.00;99665.34;5015321;28;20066;-86
2022/10/22 01:16:29;;;;;;;;;;;;;;;14.84;100.00;99663.53;5009374;28;20549;-86
2022/10/22 01:19:24;;;;;;;9.60;4.85;;;;;;;14.98;100.00;99654.84;5037629;28;19930;-86
2022/10/22 01:22:08;;;;;;;12.13;5.05;;;;;;;14.94;100.00;99648.16;5012569;28;20049;-87
2022/10/22 01:24:40;;;;;;;12.02;5.70;;;;;;;15.06;100.00;99639.75;4975067;28;20048;-86
2022/10/22 01:27:25;;;;;;;16.48;5.32;;;;;;;14.96;100.00;99631.94;5033232;28;20049;-86
2022/10/22 01:29:56;;;;;;;16.13;5.45;;;;;;;15.04;100.00;99629.25;4991448;28;20045;-85
2022/10/22 01:32:25;;;;;;;16.30;4.95;;;;;;;15.07;100.00;99633.44;5013029;28;20482;-86
2022/10/22 01:34:56;;;;;;;8.95;5.40;;;;;;;15.04;100.00;99628.44;5028302;28;20071;-86
2022/10/22 01:37:27;;;;;;;16.45;4.90;;;;;;;15.01;100.00;99636.75;5019224;28;20072;-86
2022/10/22 01:39:56;;;;;;;12.95;5.25;;;;;;;15.02;100.00;99630.44;5025054;28;20069;-86
2022/10/22 01:42:23;;;;;;;8.35;5.00;;;;;;;15.00;100.00;99627.91;5013256;28;20118;-86
2022/10/22 01:44:50;;;;;;;17.65;5.22;;;;;;;14.97;100.00;99626.41;5028112;28;20103;-86
2022/10/22 01:47:38;;;;;;;12.85;5.00;;;;;;;14.94;100.00;99626.75;5030980;28;20459;-87
2022/10/22 01:50:30;;;;;;;8.75;4.50;;;;;;;14.87;100.00;99638.28;5018711;28;20407;-86
2022/10/22 01:53:12;;;;;;;10.98;4.63;;;;;;;14.90;100.00;99640.63;5017171;28;20436;-86
2022/10/22 01:55:47;;;;;;;11.00;4.73;;;;;;;14.95;100.00;99635.59;5017559;28;20045;-86
2022/10/22 01:58:40;;;;;;;12.13;4.18;;;;;;;14.91;100.00;99645.81;5047006;28;20040;-86
2022/10/22 02:01:30;;;;;;;7.88;4.47;;;;;;;14.90;100.00;99657.50;4997908;28;20075;-85
2022/10/22 02:04:05;;;;;;;11.18;4.45;;;;;;;14.88;100.00;99666.69;4998953;28;20093;-86
2022/10/22 02:06:32;;;;;;;11.98;5.07;;;;;;;14.95;100.00;99667.69;5045209;28;20071;-86
2022/10/22 02:08:59;;;;;;;12.20;4.93;;;;;;;14.97;100.00;99673.72;5037244;28;20045;-86
2022/10/22 02:11:26;;;;;;;18.63;4.20;;;;;;;14.93;100.00;99677.72;5013089;28;20457;-86
2022/10/22 02:13:55;;;;;;;12.20;5.25;;;;;;;14.91;100.00;99677.91;5014407;28;20111;-86
2022/10/22 02:16:49;;;;;;;10.82;4.88;;;;;;;14.73;100.00;99678.06;5013621;28;20046;-86
2022/10/22 02:19:24;;;;;;;11.68;5.28;;;;;;;14.84;100.00;99668.88;4976113;28;20040;-86
2022/10/22 02:21:51;;;;;;;8.73;4.45;;;;;;;14.89;100.00;99671.88;5030841;28;20063;-87
2022/10/22 02:24:19;;;;;;;7.45;4.22;;;;;;;14.89;100.00;99679.06;5027092;28;20052;-86
2022/10/22 02:27:08;;;;;;;12.43;4.47;;;;;;;14.81;100.00;99671.03;5025126;28;20147;-86
2022/10/22 02:29:39;;;;;;;7.10;4.78;;;;;;;14.91;100.00;99671.72;4991482;28;20443;-86
2022/10/22 02:32:08;;;;;;;7.90;3.92;;;;;;;14.92;100.00;99674.22;5004354;28;20072;-86
2022/10/22 02:34:35;;;;;;;14.77;4.30;;;;;;;14.93;100.00;99672.38;5041932;28;20381;-86
2022/10/22 02:37:02;;;;;;;11.55;4.13;;;;;;;14.94;100.00;99664.19;5020264;28;20048;-86
2022/10/22 02:39:30;;;;;;;8.93;4.22;;;;;;;14.96;100.00;99667.53;5010903;28;20068;-86
2022/10/22 02:41:57;;;;;;;5.72;4.22;;;;;;;14.93;100.00;99659.84;5006297;28;20492;-86
2022/10/22 02:44:23;;;;;;;10.00;3.80;;;;;;;14.95;100.00;99644.47;5042677;28;20099;-87
2022/10/22 02:46:50;;;;;;;12.20;4.45;;;;;;;14.95;100.00;99636.44;5026457;28;20164;-86
2022/10/22 02:49:17;;;;;;;15.93;5.35;;;;;;;14.94;100.00;99629.44;5014554;28;20103;-86
2022/10/22 02:51:44;;;;;;;9.43;4.32;;;;;;;14.95;100.00;99640.97;5008463;28;20045;-86
2022/10/22 02:54:11;;;;;;;13.65;4.10;;;;;;;14.92;100.00;99634.09;5020635;28;20049;-87
2022/10/22 02:56:37;;;;;;;8.27;3.88;;;;;;;14.93;100.00;99633.13;5024967;28;20095;-85
2022/10/22 02:59:04;;;;;;;13.25;4.70;;;;;;;14.89;100.00;99625.59;5012132;28;20519;-86
2022/10/22 03:01:31;;;;;;;8.75;4.65;;;;;;;14.86;100.00;99618.75;5011396;28;20606;-85
2022/10/22 03:03:57;;;;;;;10.15;5.15;;;;;;;14.86;100.00;99624.09;5008911;28;20069;-86
2022/10/22 03:06:24;;;;;;;10.85;5.05;;;;;;;14.87;100.00;99615.06;5030406;28;20118;-86
2022/10/22 03:08:56;;;;;;;11.48;4.30;;;;;;;14.84;100.00;99610.06;5025820;28;20048;-88
2022/10/22 03:11:23;;;;;;;12.25;4.30;;;;;;;14.85;100.00;99594.84;5007685;28;25065;-86
2022/10/22 03:13:49;;;;;;;11.63;5.60;;;;;;;14.85;100.00;99594.84;5024177;28;20072;-86
2022/10/22 03:16:16;;;;;;;16.25;7.65;;;;;;;14.84;100.00;99588.69;5037562;28;20099;-86
2022/10/22 03:18:43;;;;;;;12.88;5.95;;;;;;;14.85;100.00;99587.66;5026160;28;20048;-86
2022/10/22 03:21:14;;;;;;;7.85;3.75;;;;;;;14.79;100.00;99592.88;5022308;28;20048;-85
2022/10/22 03:23:41;;;;;;;9.50;2.92;;;;;;;14.83;100.00;99627.09;5014683;28;20045;-86
2022/10/22 03:26:09;;;;;;;8.50;2.50;;;;;;;14.84;100.00;99652.00;5036804;28;20127;-86
2022/10/22 03:28:37;;;;;;;6.90;2.35;;;;;;;14.82;100.00;99638.78;5039302;28;20044;-86
2022/10/22 03:31:03;;;;;;;10.82;2.35;;;;;;;14.83;100.00;99656.50;5044261;28;20068;-86
2022/10/22 03:33:30;;;;;;;7.07;2.20;;;;;;;14.83;100.00;99642.28;5024507;28;20499;-87
2022/10/22 03:35:57;;;;;;;8.93;2.03;;;;;;;14.83;100.00;99639.63;5044658;28;20455;-87
2022/10/22 03:38:24;;;;;;;4.13;1.77;;;;;;;14.83;100.00;99637.78;5023946;28;20049;-86
2022/10/22 03:40:51;;;;;;;7.28;1.80;;;;;;;14.80;100.00;99653.31;5027458;28;20099;-86
2022/10/22 03:43:17;;;;;;;5.15;1.55;;;;;;;14.80;100.00;99659.50;5018339;28;20198;-87
2022/10/22 03:45:44;;;;;;;5.85;1.38;;;;;;;14.77;100.00;99647.31;5026267;28;20041;-86
2022/10/22 03:48:11;;;;;;;6.45;1.60;;;;;;;14.79;100.00;99636.47;5047983;28;20045;-86
2022/10/22 03:50:37;;;;;;;7.70;1.58;;;;;;;14.77;100.00;99628.59;5027129;28;20106;-86
2022/10/22 03:53:06;;;;;;;6.15;1.60;;;;;;;14.76;100.00;99626.94;5040101;28;20049;-86
2022/10/22 03:55:32;;;;;;;8.98;2.17;;;;;;;14.78;100.00;99632.09;5039463;28;20053;-86
2022/10/22 03:57:59;;;;;;;3.55;1.35;;;;;;;14.80;100.00;99650.66;5021999;28;20091;-86
2022/10/22 04:00:26;;;;;;;8.55;1.70;;;;;;;14.75;100.00;99649.31;5038631;28;20075;-86
2022/10/22 04:02:52;;;;;;;6.20;1.88;;;;;;;14.73;100.00;99655.81;5026702;28;20079;-87
2022/10/22 04:05:19;;;;;;;7.40;1.70;;;;;;;14.72;100.00;99670.19;5040849;28;20146;-86
2022/10/22 04:07:46;;;;;;;4.28;1.52;;;;;;;14.72;100.00;99668.34;5040986;28;20049;-86
2022/10/22 04:10:13;;;;;;;4.57;1.55;;;;;;;14.72;100.00;99683.56;5011639;28;20044;-86
2022/10/22 04:12:39;;;;;;;4.15;1.80;;;;;;;14.72;100.00;99681.72;5041487;28;20470;-86
2022/10/22 04:15:07;;;;;;;6.63;1.73;;;;;;;14.72;100.00;99680.91;5027903;28;20094;-86
2022/10/22 04:17:34;;;;;;;4.55;1.88;;;;;;;14.71;100.00;99700.63;5023349;28;20045;-85
2022/10/22 04:20:02;;;;;;;9.18;1.92;;;;;;;14.67;100.00;99705.44;5035619;28;20527;-86
2022/10/22 04:22:32;;;;;;;12.43;1.85;;;;;;;14.63;100.00;99716.63;5022716;28;20095;-86
2022/10/22 04:24:59;;;;;;;7.30;2.30;;;;;;;14.65;100.00;99717.28;5010075;28;20060;-85
2022/10/22 04:27:29;;;;;;;12.85;4.40;;;;;;;14.65;99.75;99731.47;5027424;28;20056;-86
2022/10/22 04:29:56;;;;;;;12.30;3.22;;;;;;;14.66;100.00;99733.19;5028821;28;20056;-86
2022/10/22 04:32:24;;;;;;;7.10;2.13;;;;;;;14.62;99.86;99731.00;5032718;28;20092;-86
2022/10/22 04:34:50;;;;;;;5.47;2.00;;;;;;;14.56;99.51;99726.31;5018977;28;20106;-86
2022/10/22 04:37:17;;;;;;;12.50;1.70;;;;;;;14.52;99.27;99737.28;5000930;28;20491;-86
2022/10/22 04:39:44;;;;;;;2.42;1.67;;;;;;;14.55;99.19;99733.47;5024380;28;20116;-86
2022/10/22 04:42:11;;;;;;;6.72;1.33;;;;;;;14.54;98.92;99735.31;5028685;28;20470;-87
2022/10/22 04:44:38;;;;;;;5.32;1.70;;;;;;;14.47;98.89;99733.44;5034306;28;20044;-86
2022/10/22 04:47:05;;;;;;;10.90;1.73;;;;;;;14.47;98.51;99741.44;5024706;28;20087;-85
2022/10/22 04:49:31;;;;;;;5.22;1.58;;;;;;;14.49;98.64;99748.28;5033140;28;20611;-86
2022/10/22 04:51:58;;;;;;;6.63;1.73;;;;;;;14.45;98.96;99743.44;5023488;28;20692;-86
2022/10/22 04:54:25;;;;;;;6.18;1.80;;;;;;;14.49;98.83;99752.81;5006038;28;20064;-86
2022/10/22 04:56:57;;;;;;;7.85;1.55;;;;;;;14.43;99.06;99745.47;5011131;28;20056;-86
2022/10/22 04:59:24;;;;;;;9.80;3.03;;;;;;;14.39;98.37;99755.63;5036134;28;20135;-85
2022/10/22 05:01:51;;;;;;;9.05;2.00;;;;;;;14.41;98.45;99748.28;5048332;28;20037;-86
2022/10/22 05:04:18;;;;;;;15.63;1.52;;;;;;;14.41;97.64;99734.94;5028750;28;20049;-86
2022/10/22 05:06:45;;;;;;;5.35;1.30;;;;;;;14.36;97.29;99747.09;5027742;28;20047;-86
2022/10/22 05:09:15;;;;;;;6.85;1.85;;;;;;;14.27;96.93;99746.22;5012450;28;20380;-85
2022/10/22 05:11:47;;;;;;;7.47;2.00;;;;;;;14.26;96.58;99750.72;5024441;28;20131;-85
2022/10/22 05:14:17;;;;;;;7.93;1.50;;;;;;;14.24;96.31;99749.22;5013765;28;20044;-85
2022/10/22 05:16:46;;;;;;;6.20;1.73;;;;;;;14.28;96.69;99745.25;5028701;28;20133;-86
2022/10/22 05:19:24;;;;;;;7.40;1.90;;;;;;;14.21;95.58;99746.88;5014534;28;20045;-86
2022/10/22 05:21:53;;;;;;;6.57;1.90;;;;;;;14.22;96.54;99751.22;4993502;28;20109;-86
2022/10/22 05:24:20;;;;;;;5.65;1.30;;;;;;;14.18;96.65;99756.06;5029306;28;20044;-86
2022/10/22 05:26:50;;;;;;;4.20;0.93;;;;;;;14.14;96.20;99757.34;5030256;28;20098;-86
2022/10/22 05:29:17;;;;;;;5.68;1.25;;;;;;;14.18;96.25;99763.22;5019704;28;20041;-86
2022/10/22 05:31:44;;;;;;;8.02;1.52;;;;;;;14.19;96.33;99763.06;5018106;28;20045;-86
2022/10/22 05:34:11;;;;;;;4.55;1.17;;;;;;;14.19;96.07;99756.88;5014523;28;20475;-86
2022/10/22 05:36:38;;;;;;;7.22;1.30;;;;;;;14.21;95.81;99765.56;5022915;28;20099;-86
2022/10/22 05:39:05;;;;;;;6.32;2.05;;;;;;;14.18;95.94;99769.41;5042904;28;20132;-86
2022/10/22 05:41:32;;;;;;;2.78;1.20;;;;;;;14.16;95.99;99767.88;5021876;28;20071;-86
2022/10/22 05:43:59;;;;;;;5.20;1.60;;;;;;;14.13;96.15;99774.38;5042465;28;20497;-86
2022/10/22 05:46:28;;;;;;;1.42;1.30;;;;;;;14.12;95.87;99780.72;5014059;28;20064;-86
2022/10/22 05:48:58;;;;;;;2.75;1.45;;;;;;;14.08;95.57;99782.03;5035229;28;20109;-86
2022/10/22 05:51:26;;;;;;;8.05;1.75;;;;;;;14.08;95.34;99776.69;5029369;28;20527;-86
2022/10/22 05:53:57;;;;;;;3.92;1.80;;;;;;;14.07;94.90;99783.06;5039527;28;20045;-86
2022/10/22 05:56:25;;;;;;;3.65;1.55;;;;;;;14.05;95.12;99791.22;5026794;28;20064;-86
2022/10/22 05:58:52;;;;;;;9.57;2.28;;;;;;;14.04;94.75;99791.34;5001205;28;20044;-86
2022/10/22 06:01:21;;;;;;;8.25;1.95;;;;;;;13.98;94.65;99795.50;5042260;28;20048;-86
2022/10/22 06:03:48;;;;;;;8.00;2.53;;;;;;;14.02;94.29;99799.53;5020312;28;20047;-85
2022/10/22 06:06:28;;;;;;;4.05;1.92;;;;;;;13.82;93.69;99803.44;5029549;28;20095;-86
2022/10/22 06:08:55;;;;;;;11.50;1.92;;;;;;;13.90;94.62;99801.63;4997525;28;20037;-86
2022/10/22 06:11:22;;;;;;;5.55;1.98;;;;;;;13.91;94.67;99802.47;5015308;28;20059;-85
2022/10/22 06:13:49;;;;;;;6.25;1.60;;;;;;;14.01;94.60;99807.69;5034296;28;20072;-86
2022/10/22 06:16:17;;;;;;;7.28;1.73;;;;;;;13.99;94.72;99818.56;5020160;28;20053;-85
2022/10/22 06:18:44;;;;;;;7.45;1.85;;;;;;;13.97;94.66;99819.66;5040167;28;20092;-85
2022/10/22 06:21:12;;;;;;;4.43;2.13;;;;;;;13.95;94.67;99829.69;5020896;28;20049;-85
2022/10/22 06:23:40;;;;;;;3.78;1.38;;;;;;;13.88;94.73;99824.97;5027117;28;20044;-85
2022/10/22 06:26:07;;;;;;;9.63;2.30;;;;;;;13.90;94.62;99832.84;5012090;28;20455;-85
2022/10/22 06:28:34;;;;;;;6.13;1.90;;;;;;;13.90;94.52;99849.69;5009547;28;20044;-85
2022/10/22 06:31:02;;;;;;;3.20;1.52;;;;;;;13.91;94.25;99858.53;5025808;28;20484;-85
2022/10/22 06:33:31;;;;;;;3.10;1.60;;;;;;;13.90;93.79;99868.38;5025763;28;20051;-85
2022/10/22 06:36:08;;;;;;;10.45;2.70;;;;;;;13.79;93.38;99873.97;5040560;28;20064;-85
2022/10/22 06:38:35;;;;;;;7.88;1.63;;;;;;;13.88;94.03;99874.84;5018648;28;20133;-85
2022/10/22 06:41:07;;;;;;;6.28;1.88;;;;;;;13.86;94.10;99872.31;5028098;28;20084;-85
2022/10/22 06:43:34;;;;;;;4.25;1.95;;;;;;;13.88;94.35;99883.69;5030826;28;20455;-85
2022/10/22 06:46:02;;;;;;;9.00;1.80;;;;;;;13.87;94.48;99875.88;5033880;28;20102;-86
2022/10/22 06:48:29;;;;;;;11.30;2.45;;;;;;;13.92;94.73;99892.25;5031767;28;20045;-86
2022/10/22 06:51:00;;;;;;;10.27;2.17;;;;;;;13.91;93.80;99887.88;5038488;28;20102;-85
2022/10/22 06:53:27;;;;;;;5.00;1.90;;;;;;;13.96;94.59;99898.94;5016241;28;20629;-85
2022/10/22 06:55:54;;;;;;;4.88;1.90;;;;;;;13.96;94.84;99901.59;5028689;28;20110;-86
2022/10/22 06:58:21;;;;;;;9.68;2.75;;;;;;;13.97;95.30;99902.44;5030791;28;20393;-85
2022/10/22 07:00:47;;;;;;;4.75;2.05;;;;;;;13.98;95.58;99902.28;5040661;28;20458;-85
2022/10/22 07:03:14;;;;;;;9.43;2.92;;;;;;;13.99;95.41;99909.31;5038857;28;20049;-85
2022/10/22 07:05:41;;;;;;;9.02;3.47;;;;;;;13.96;95.59;99912.28;5033972;28;20048;-85
2022/10/22 07:08:08;;;;;;;7.43;3.92;;;;;;;13.94;95.54;99903.59;5029073;28;20045;-85
2022/10/22 07:10:34;;;;;;;8.45;3.97;;;;;;;13.97;95.44;99916.66;5044665;28;20053;-85
2022/10/22 07:13:01;;;;;;;8.75;4.38;;;;;;;13.91;95.93;99914.56;5037769;28;20059;-86
2022/10/22 07:15:28;;;;;;;13.90;4.30;;;;;;;13.99;94.97;99911.13;5047819;28;20057;-85
2022/10/22 07:17:54;;;;;;;7.22;4.53;;;;;;;13.99;94.97;99906.66;5034842;28;20069;-85
2022/10/22 07:20:21;;;;;;;24.23;5.63;;;;;;;13.94;95.50;99914.25;5009988;28;20595;-86
2022/10/22 07:22:48;;;;;;;9.20;5.68;;;;;;;13.92;95.67;99918.94;5027130;28;20382;-85
2022/10/22 07:25:14;;;;;;;15.30;5.38;;;;;;;13.91;95.88;99919.91;5038934;28;20480;-86
2022/10/22 07:27:41;;;;;;;17.88;5.30;;;;;;;13.96;95.78;99925.63;5039448;28;20041;-86
2022/10/22 07:30:08;;;;;;;14.45;4.97;;;;;;;13.94;96.01;99930.28;5056686;28;20080;-86
2022/10/22 07:32:36;;;;;;;28.92;5.03;;;;;;;13.95;96.37;99931.97;5034556;28;20566;-86
2022/10/22 07:35:03;;;;;;;13.05;4.75;;;;;;;13.89;96.39;99937.91;5026035;28;20052;-86
2022/10/22 07:37:30;;;;;;;12.80;4.57;;;;;;;13.92;96.61;99940.31;5041575;28;20115;-86
2022/10/22 07:39:57;;;;;;;11.38;4.68;;;;;;;13.93;96.24;99936.63;5041083;28;20496;-86
2022/10/22 07:42:29;;;;;;;4.47;3.55;;;;;;;13.90;96.86;99937.78;5012473;28;20045;-85
2022/10/22 07:45:01;;;;;;;10.00;3.75;;;;;;;13.91;96.85;99938.59;5040302;28;20559;-85
2022/10/22 07:47:28;;;;;;;6.65;4.03;;;;;;;13.93;96.77;99952.63;5025925;28;20040;-86
2022/10/22 07:49:54;;;;;;;6.55;4.15;;;;;;;13.92;97.83;99955.44;5023383;28;20037;-86
2022/10/22 07:52:21;;;;;;;8.13;5.13;;;;;;;13.92;97.61;99961.66;5010785;28;20071;-86
2022/10/22 07:54:47;;;;;;;15.55;4.43;;;;;;;13.99;97.62;99956.50;5012988;28;20123;-86
2022/10/22 07:57:14;;;;;;;8.32;4.03;;;;;;;14.02;96.86;99957.06;5041688;28;20155;-85
2022/10/22 07:59:41;;;;;;;10.82;3.97;;;;;;;14.13;96.65;99960.47;5031349;28;20524;-85
2022/10/22 08:02:08;;;;;;;6.50;3.80;;;;;;;14.20;96.58;99954.34;5028560;28;20068;-85
2022/10/22 08:04:35;;;;;;;5.10;3.53;;;;;;;14.29;96.79;99955.25;5023188;28;20155;-86
2022/10/22 08:07:02;;;;;;;6.47;3.95;;;;;;;14.39;96.60;99955.13;5023875;28;20049;-85
2022/10/22 08:09:28;;;;;;;6.18;4.32;;;;;;;14.45;96.51;99959.84;5035644;28;20045;-86
2022/10/22 08:11:55;;;;;;;7.43;5.00;;;;;;;14.52;96.50;99963.56;5015446;28;20057;-86
2022/10/22 08:14:22;;;;;;;12.02;6.70;;;;;;;14.60;97.11;99955.63;5025259;28;20075;-86
2022/10/22 08:16:49;;;;;;;10.57;3.90;;;;;;;14.64;96.62;99964.19;5039336;28;20467;-85
2022/10/22 08:19:20;;;;;;;10.10;3.33;;;;;;;14.68;96.14;99957.50;5045779;28;20047;-85
2022/10/22 08:21:46;;;;;;;6.47;3.72;;;;;;;14.67;96.17;99961.19;5030833;28;20041;-86
2022/10/22 08:24:13;;;;;;;6.88;3.63;;;;;;;14.67;96.15;99964.69;5023483;28;20123;-86
2022/10/22 08:26:40;;;;;;;6.13;3.53;;;;;;;14.68;96.37;99957.50;5024392;28;20048;-86
2022/10/22 08:29:07;;;;;;;6.47;3.20;;;;;;;14.73;96.52;99956.03;5020997;28;20041;-86
2022/10/22 08:31:34;;;;;;;5.70;3.70;;;;;;;14.81;96.54;99960.59;5023666;28;20049;-86
2022/10/22 08:34:01;;;;;;;5.80;3.72;;;;;;;14.82;96.65;99961.44;5023495;28;20099;-86
2022/10/22 08:36:27;;;;;;;9.20;3.30;;;;;;;14.86;96.94;99958.28;5025045;28;20076;-86
2022/10/22 08:38:54;;;;;;;6.07;2.95;;;;;;;14.92;96.92;99959.47;5026664;28;20099;-86
2022/10/22 08:41:22;;;;;;;5.72;4.05;;;;;;;14.96;97.13;99964.34;5015916;28;20094;-86
2022/10/22 08:44:14;;;;;;;9.55;5.43;;;;;;;14.96;97.00;99959.00;5046530;28;20044;-85
2022/10/22 08:47:13;;;;;;;9.85;5.97;;;;;;;14.92;97.05;99957.63;5029193;28;20492;-85
2022/10/22 08:49:47;;;;;;;8.90;5.65;;;;;;;15.04;97.28;99960.84;5023190;28;20131;-84
2022/10/22 08:52:16;;;;;;;11.25;6.40;;;;;;;15.08;97.35;99961.34;5011669;28;20048;-86
2022/10/22 08:54:51;;;;;;;9.32;5.38;;;;;;;15.09;97.36;99963.88;5022234;28;20044;-85
2022/10/22 08:57:45;;;;;;;7.65;5.30;;;;;;;15.11;97.67;99972.59;4983961;28;20094;-85
2022/10/22 09:00:17;;;;;;;7.93;5.30;;;;;;;15.13;97.66;99975.91;4961139;28;20048;-85
2022/10/22 09:02:56;;;;;;;14.43;5.72;;;;;;;15.17;97.79;99976.44;5058823;28;20043;-86
2022/10/22 09:05:31;;;;;;;8.13;5.28;;;;;;;15.16;97.76;99978.28;5022887;28;20044;-85
2022/10/22 09:07:58;;;;;;;7.78;6.05;;;;;;;15.21;98.05;99975.09;5033637;28;20095;-85
2022/10/22 09:10:28;;;;;;;10.00;5.07;;;;;;;15.25;98.48;99976.47;5052168;28;20067;-86
2022/10/22 09:12:55;;;;;;;6.72;4.35;;;;;;;15.26;97.64;99975.44;5043219;28;20064;-86
2022/10/22 09:15:22;;;;;;;8.60;3.78;;;;;;;15.28;98.01;99973.47;5013891;28;20496;-86
2022/10/22 09:18:25;;;;;;;4.85;3.30;;;;;;;15.24;98.02;99979.28;5046506;28;20032;-87
2022/10/22 09:20:53;;;;;;;;;;;;;;;15.18;98.69;99980.78;4929394;28;20037;-87
2022/10/22 09:23:23;;;;;;;2.63;1.80;;;;;;;15.36;97.96;99980.66;5046689;28;19955;-87
2022/10/22 09:25:50;;;;;;;2.83;1.70;;;;;;;15.44;97.89;99986.03;5049521;28;20047;-86
2022/10/22 09:28:17;;;;;;;2.55;1.70;;;;;;;15.49;97.68;99991.72;5023341;28;20044;-86
2022/10/22 09:30:44;;;;;;;1.75;1.60;;;;;;;15.54;97.24;99991.25;5040109;28;20140;-87
2022/10/22 09:33:13;;;;;;;1.58;1.30;;;;;;;15.56;96.96;99997.28;5065548;28;20048;-87
2022/10/22 09:36:02;;;;;;;3.00;1.40;;;;;;;15.51;96.75;99996.94;5062847;28;20044;-87
2022/10/22 09:38:31;;;;;;;2.30;1.25;;;;;;;15.63;96.79;100003.66;5013343;28;20071;-87
2022/10/22 09:41:00;;;;;;;3.75;1.45;;;;;;;15.68;96.77;100000.50;5034857;28;20103;-88
2022/10/22 09:43:26;;;;;;;2.75;1.27;;;;;;;15.71;96.61;100011.72;5046906;28;20044;-87
2022/10/22 09:45:59;;;;;;;1.50;1.20;;;;;;;15.70;96.36;100015.44;5049262;28;20040;-87
2022/10/22 09:48:38;;;;;;;3.33;1.20;;;;;;;15.65;96.44;100012.38;5026553;28;20048;-87
2022/10/22 09:51:13;;;;;;;4.80;1.20;;;;;;;15.71;96.68;100006.38;5023932;28;20415;-86
2022/10/22 09:53:42;;;;;;;3.28;0.90;;;;;;;15.72;95.92;100018.78;5039919;28;20090;-87
2022/10/22 09:56:34;;;;;;;1.30;0.70;;;;;;;15.62;95.88;100023.38;5032695;28;20052;-87
2022/10/22 09:59:01;;;;;;;3.17;1.20;;;;;;;15.74;95.92;100019.44;5000646;28;20102;-87
2022/10/22 10:01:31;;;;;;;0.82;0.82;;;;;;;15.75;95.87;100029.16;5024306;28;20060;-86
2022/10/22 10:04:03;;;;;;;3.95;1.25;;;;;;;15.79;96.11;100037.69;5039193;28;20052;-87
2022/10/22 10:06:38;;;;;;;2.63;0.90;;;;;;;15.81;96.34;100027.66;5028461;28;20112;-87
2022/10/22 10:09:24;;;;;;;1.90;1.08;;;;;;;15.75;95.58;100029.16;4997927;28;20048;-87
2022/10/22 10:12:01;;;;;;;1.63;0.80;;;;;;;15.84;95.19;100036.19;4983798;28;20056;-87
2022/10/22 10:14:42;;;;;;;1.55;0.90;;;;;;;15.88;95.17;100022.50;5015222;28;20040;-88
2022/10/22 10:17:27;;;;;;;1.38;0.80;;;;;;;15.88;94.86;100033.19;5026880;28;20102;-90
2022/10/22 10:20:15;;;;;;;3.28;1.45;;;;;;;15.93;95.06;100034.38;5028598;28;20063;-88
2022/10/22 10:22:50;;;;;;;1.48;0.85;;;;;;;16.01;95.20;100033.53;4979620;28;20094;-88
2022/10/22 10:25:23;;;;;;;3.67;1.20;;;;;;;16.04;95.17;100031.34;5041587;28;20117;-89
2022/10/22 10:28:08;;;;;;;5.00;1.13;;;;;;;16.06;95.71;100023.16;5030663;28;20045;-88
2022/10/22 10:30:48;;;;;;;5.65;2.00;;;;;;;16.12;94.97;100033.19;4998169;28;20098;-89
2022/10/22 10:33:35;;;;;;;2.05;1.20;;;;;;;16.17;95.17;100032.72;5025512;28;20032;-90
2022/10/22 10:36:24;;;;;;;2.42;1.20;;;;;;;16.13;95.06;100020.63;5025218;28;20155;-89
2022/10/22 10:39:36;;;;;;;4.95;1.20;;;;;;;16.13;94.14;100026.84;5012203;28;20041;-87
2022/10/22 10:42:30;;;;;;;1.50;1.10;;;;;;;16.16;94.13;100028.38;4917406;28;20045;-90
2022/10/22 10:44:59;;;;;;;4.43;2.20;;;;;;;16.25;94.44;100030.84;5009976;28;20038;-88
2022/10/22 10:47:44;;;;;;;4.25;0.98;;;;;;;16.24;93.79;100031.88;5027443;28;20500;-88
2022/10/22 10:50:28;;;;;;;1.77;1.15;;;;;;;16.24;93.63;100031.03;5030735;28;20455;-88
2022/10/22 10:53:11;;;;;;;11.60;4.25;;;;;;;16.29;93.10;100028.69;5013115;28;20036;-90
2022/10/22 10:55:54;;;;;;;8.40;3.95;;;;;;;16.30;92.68;100026.84;5004771;28;20408;-91
2022/10/22 10:58:34;;;;;;;3.03;1.70;;;;;;;16.34;92.49;100030.88;5036830;28;20051;-93
2022/10/22 11:01:26;;;;;;;4.78;1.13;;;;;;;16.37;92.81;100028.69;5004529;28;20052;-91
2022/10/22 11:04:10;;;;;;;2.33;1.05;;;;;;;16.42;92.33;100023.66;4989047;28;20124;-91
2022/10/22 11:06:38;;;;;;;4.60;0.90;;;;;;;16.46;92.63;100030.34;5014037;28;20046;-88
2022/10/22 11:09:13;;;;;;;4.10;1.02;;;;;;;16.51;92.26;100024.47;5039355;28;20099;-89
2022/10/22 11:11:47;;;;;;;2.83;0.82;;;;;;;16.51;91.88;100027.16;4996539;28;20094;-92
2022/10/22 11:14:20;;;;;;;2.22;0.80;;;;;;;16.55;92.03;100025.81;5017170;28;20045;-90
2022/10/22 11:17:24;;;;;;;2.15;0.80;;;;;;;16.57;91.69;100022.97;4992660;28;20045;-89
2022/10/22 11:20:06;;;;;;;2.90;0.90;;;;;;;16.57;90.85;100029.16;4995924;28;20044;-87
2022/10/22 11:22:38;;;;;;;1.85;1.02;;;;;;;16.64;90.91;100027.50;5007723;28;20052;-90
2022/10/22 11:25:27;;;;;;;6.55;1.33;;;;;;;16.63;90.46;100020.44;5002506;28;20113;-88
2022/10/22 11:28:02;;;;;;;3.72;1.25;;;;;;;16.68;90.16;100020.75;5021303;28;20053;-88
2022/10/22 11:30:37;;;;;;;6.70;1.35;;;;;;;16.74;90.82;100016.59;4994748;28;20053;-88
2022/10/22 11:33:10;;;;;;;3.65;0.90;;;;;;;16.74;89.86;100023.75;5039869;28;20821;-88
2022/10/22 11:35:43;;;;;;;2.13;1.10;;;;;;;16.77;90.23;100028.81;5023354;28;20492;-91
2022/10/22 11:38:15;;;;;;;5.13;1.50;;;;;;;16.79;90.08;100022.28;4979343;28;20068;-87
2022/10/22 11:40:51;;;;;;;4.25;1.13;;;;;;;16.81;90.15;100017.56;5029588;28;20048;-90
2022/10/22 11:43:34;;;;;;;7.32;1.23;;;;;;;16.83;89.56;100018.25;5055886;28;20105;-91
2022/10/22 11:46:03;;;;;;;;;;;;;;;16.76;89.88;100017.22;5020261;28;20493;-89